N124TL -KLXV
Flight info
| Callsign | N124TL |
|---|---|
| Flight time | N/A |
| Altitude | VFR |
| Route | |
| Aircraft | BE58/L-DOV/C |
Departure
| Time | N/A |
|---|---|
| Airport | - |
Arrival
| Time | 2026-04-22 01:39 |
|---|---|
| Airport | Lake County Airport (KLXV) |
| Time | Latitude | Longitude | Altitude | Speed | Heading |
|---|---|---|---|---|---|
| 2026-04-22 01:21 | 39.70170 | -106.69133 | 9348 ft | 175 kts | 116° |
| 2026-04-22 01:22 | 39.69472 | -106.67870 | 9344 ft | 174 kts | 138° |
| 2026-04-22 01:22 | 39.68619 | -106.66725 | 9332 ft | 177 kts | 139° |
| 2026-04-22 01:22 | 39.67749 | -106.65563 | 9336 ft | 178 kts | 139° |
| 2026-04-22 01:22 | 39.66999 | -106.64293 | 9339 ft | 180 kts | 124° |
| 2026-04-22 01:23 | 39.66386 | -106.62863 | 9369 ft | 181 kts | 123° |
| 2026-04-22 01:23 | 39.65773 | -106.61408 | 9367 ft | 182 kts | 123° |
| 2026-04-22 01:23 | 39.65236 | -106.59911 | 9351 ft | 186 kts | 109° |
| 2026-04-22 01:23 | 39.64953 | -106.58266 | 9370 ft | 187 kts | 104° |
| 2026-04-22 01:24 | 39.64693 | -106.56599 | 9374 ft | 188 kts | 105° |
| 2026-04-22 01:24 | 39.64430 | -106.54930 | 9378 ft | 188 kts | 105° |
| 2026-04-22 01:24 | 39.64168 | -106.53271 | 9387 ft | 188 kts | 104° |
| 2026-04-22 01:24 | 39.63905 | -106.51624 | 9401 ft | 187 kts | 104° |
| 2026-04-22 01:25 | 39.63481 | -106.50056 | 9578 ft | 178 kts | 118° |
| 2026-04-22 01:25 | 39.62972 | -106.48641 | 9792 ft | 172 kts | 118° |
| 2026-04-22 01:25 | 39.62344 | -106.47356 | 9986 ft | 166 kts | 130° |
| 2026-04-22 01:25 | 39.61665 | -106.46155 | 10138 ft | 163 kts | 130° |
| 2026-04-22 01:26 | 39.60989 | -106.44953 | 10267 ft | 161 kts | 131° |
| 2026-04-22 01:26 | 39.60341 | -106.43788 | 10394 ft | 160 kts | 130° |
| 2026-04-22 01:26 | 39.59689 | -106.42609 | 10513 ft | 159 kts | 130° |
| 2026-04-22 01:26 | 39.58940 | -106.41597 | 10648 ft | 152 kts | 158° |
| 2026-04-22 01:27 | 39.57930 | -106.41248 | 10769 ft | 152 kts | 176° |
| 2026-04-22 01:27 | 39.56845 | -106.41045 | 10737 ft | 159 kts | 177° |
| 2026-04-22 01:27 | 39.55735 | -106.40813 | 10720 ft | 165 kts | 168° |
| 2026-04-22 01:27 | 39.54650 | -106.40260 | 10735 ft | 168 kts | 161° |
| 2026-04-22 01:28 | 39.53566 | -106.39641 | 10754 ft | 171 kts | 160° |
| 2026-04-22 01:28 | 39.52473 | -106.39017 | 10756 ft | 174 kts | 160° |
| 2026-04-22 01:28 | 39.51341 | -106.38373 | 10754 ft | 177 kts | 160° |
| 2026-04-22 01:28 | 39.50216 | -106.37676 | 10711 ft | 182 kts | 152° |
| 2026-04-22 01:29 | 39.49178 | -106.36756 | 10730 ft | 181 kts | 148° |
| 2026-04-22 01:29 | 39.48145 | -106.35812 | 10742 ft | 182 kts | 148° |
| 2026-04-22 01:29 | 39.47091 | -106.34852 | 10737 ft | 183 kts | 148° |
| 2026-04-22 01:29 | 39.46048 | -106.33890 | 10729 ft | 184 kts | 148° |
| 2026-04-22 01:30 | 39.45008 | -106.32945 | 10724 ft | 184 kts | 149° |
| 2026-04-22 01:30 | 39.43960 | -106.31982 | 10719 ft | 183 kts | 148° |
| 2026-04-22 01:30 | 39.42924 | -106.31006 | 10739 ft | 183 kts | 148° |
| 2026-04-22 01:30 | 39.41983 | -106.29875 | 10756 ft | 180 kts | 140° |
| 2026-04-22 01:31 | 39.41066 | -106.29699 | 11379 ft | 126 kts | 213° |
| 2026-04-22 01:31 | 39.40364 | -106.30393 | 11382 ft | 135 kts | 229° |
| 2026-04-22 01:31 | 39.39578 | -106.31194 | 11328 ft | 144 kts | 211° |
| 2026-04-22 01:31 | 39.38680 | -106.31727 | 11457 ft | 141 kts | 208° |
| 2026-04-22 01:32 | 39.37786 | -106.32227 | 11534 ft | 140 kts | 208° |
| 2026-04-22 01:32 | 39.36886 | -106.32722 | 11597 ft | 140 kts | 209° |
| 2026-04-22 01:32 | 39.35941 | -106.33124 | 11627 ft | 143 kts | 192° |
| 2026-04-22 01:32 | 39.34936 | -106.33131 | 11691 ft | 145 kts | 185° |
| 2026-04-22 01:33 | 39.33935 | -106.33221 | 11717 ft | 146 kts | 204° |
| 2026-04-22 01:33 | 39.32891 | -106.33328 | 11584 ft | 161 kts | 179° |
| 2026-04-22 01:33 | 39.31737 | -106.33207 | 11432 ft | 173 kts | 174° |
| 2026-04-22 01:33 | 39.30538 | -106.32845 | 11382 ft | 175 kts | 176° |
| 2026-04-22 01:34 | 39.29335 | -106.32385 | 11198 ft | 183 kts | 165° |
| 2026-04-22 01:34 | 39.28135 | -106.31924 | 11127 ft | 180 kts | 171° |
| 2026-04-22 01:34 | 39.26924 | -106.31541 | 11117 ft | 174 kts | 172° |
| 2026-04-22 01:34 | 39.25769 | -106.31154 | 11100 ft | 171 kts | 169° |
| 2026-04-22 01:35 | 39.24608 | -106.30762 | 11027 ft | 170 kts | 177° |
| 2026-04-22 01:35 | 39.23446 | -106.30513 | 10949 ft | 170 kts | 178° |
| 2026-04-22 01:35 | 39.22425 | -106.30907 | 11224 ft | 142 kts | 218° |
| 2026-04-22 01:35 | 39.21841 | -106.31795 | 11496 ft | 125 kts | 237° |
| 2026-04-22 01:36 | 39.21396 | -106.32765 | 11477 ft | 127 kts | 238° |
| 2026-04-22 01:36 | 39.20814 | -106.33637 | 11330 ft | 140 kts | 207° |
| 2026-04-22 01:36 | 39.19742 | -106.33844 | 10738 ft | 165 kts | 182° |
| 2026-04-22 01:36 | 39.18639 | -106.33764 | 10682 ft | 154 kts | 178° |
| 2026-04-22 01:37 | 39.17606 | -106.33635 | 10713 ft | 137 kts | 176° |
| 2026-04-22 01:37 | 39.16732 | -106.33473 | 10846 ft | 117 kts | 165° |
| 2026-04-22 01:37 | 39.16265 | -106.32672 | 10702 ft | 126 kts | 95° |
| 2026-04-22 01:37 | 39.16415 | -106.31621 | 10777 ft | 112 kts | 77° |
| 2026-04-22 01:38 | 39.16874 | -106.30866 | 10743 ft | 114 kts | 18° |
| 2026-04-22 01:38 | 39.17680 | -106.30758 | 10664 ft | 120 kts | 357° |
| 2026-04-22 01:38 | 39.18541 | -106.30909 | 10519 ft | 127 kts | 348° |
| 2026-04-22 01:38 | 39.19424 | -106.31110 | 10335 ft | 131 kts | 351° |
| 2026-04-22 01:39 | 39.20330 | -106.31290 | 10123 ft | 130 kts | 349° |
| 2026-04-22 01:39 | 39.21186 | -106.31479 | 9973 ft | 116 kts | 349° |
| 2026-04-22 01:39 | 39.21856 | -106.31627 | 9963 ft | 82 kts | 352° |
| 2026-04-22 01:39 | 39.22252 | -106.31712 | 9963 ft | 43 kts | 351° |
| 2026-04-22 01:40 | 39.22474 | -106.31739 | 9962 ft | 19 kts | 43° |
| 2026-04-22 01:40 | 39.22473 | -106.31612 | 9963 ft | 10 kts | 136° |
| 2026-04-22 01:40 | 39.22418 | -106.31623 | 9963 ft | 9 kts | 207° |
| 2026-04-22 01:40 | 39.22403 | -106.31640 | 9963 ft | 0 kts | 257° |